Weather observations for the past three days for
Skagway
Imperial (Metric)
Date Time (akdt) Wind (mph) Vis. (mi.) Weather Sky Cond. Temperature (ºF) Relative Humidity Wind Chill (°F) Heat Index (°F) Pressure Precipitation (in)
Air Dwpt 6 hour altimeter (in) sea level (mb) 1 hr 3 hr 6 hr
Max. Min.
04 20:53 Calm 10.00 Fair CLR 54 45 72% 30.09 1018.9
04 19:53 N 3 10.00 Fair CLR 57 45 64% 30.08 1018.5
04 18:53 N 5 10.00 Fair CLR 60.1 44.1 56% 30.06 1017.8
04 17:53 W 5 10.00 Fair CLR 64.9 43 45% 30.05 1017.6
04 16:53 W 5 10.00 Fair CLR 64 41 43% 30.06 1017.9
04 15:53 SW 6 10.00 Fair CLR 64 44.1 64 48.9 48% 30.06 1018.0
04 14:53 SW 5 10.00 Fair CLR 62.1 45 54% 30.08 1018.4
04 13:53 SW 3 10.00 Fair CLR 60.1 43 53% 30.09 1019.1
04 12:53 SW 5 10.00 Fair CLR 57 41 55% 30.11 1019.5
04 11:53 SW 5 10.00 Fair CLR 53.1 44.1 72% 30.11 1019.7
04 10:53 SW 7 9.00 Fair CLR 50 45 83% 48 30.12 1019.9
04 09:53 Calm 10.00 Fair CLR 51.1 45 53.1 45 80% 30.13 1020.2
04 07:53 Calm 10.00 Fair CLR 46.9 43 86% 30.15 1021.0
04 06:53 NE 5 10.00 Fair CLR 45 42.1 90% 43 30.15 1021.0
04 05:53 NE 5 10.00 Fair CLR 46 42.1 86% 44 30.15 1021.1
04 04:53 N 3 10.00 Fair CLR 45 42.1 90% 30.15 1021.0
04 03:53 NE 5 10.00 Fair CLR 46.9 42.1 53.1 46 83% 45 30.14 1020.8
04 02:53 NE 3 10.00 Fair CLR 48 42.1 80% 30.15 1020.8
04 01:53 NE 5 10.00 Fair CLR 48 43 83% 47 30.14 1020.7
04 00:53 NE 3 10.00 Fair CLR 48 43 83% 30.14 1020.8
03 23:53 N 3 10.00 Fair CLR 48.9 43 80% 30.15 1021.0
03 22:53 NE 5 10.00 Fair CLR 52 43 72% 30.15 1020.9
03 21:53 Calm 10.00 Fair CLR 52 44.1 68 52 75% 30.14 1020.6
03 20:53 Calm 10.00 Fair CLR 54 44.1 69% 30.14 1020.7
03 19:53 Calm 10.00 Fair CLR 57 45 64% 30.12 1020.1
03 18:53 Calm 8.00 Fair CLR 57.9 46 65% 30.1 1019.2
03 17:53 SW 3 10.00 Fair CLR 57.9 46 65% 30.1 1019.1
03 16:53 SW 3 10.00 Fair CLR 66 41 40% 30.1 1019.1
03 15:53 SW 5 10.00 Fair CLR 69.1 37.9 73 62.1 32% 30.09 1019.0
03 14:53 Calm 10.00 Fair CLR 73 35.1 25% 30.1 1019.3
03 13:53 Calm 10.00 Fair CLR 71.1 35.1 27% 30.1 1019.3
03 12:53 N 6 10.00 Fair CLR 69.1 37 31% 30.1 1019.2
03 11:53 NE 5 10.00 Fair CLR 68 37 32% 30.11 1019.5
03 10:53 Vrbl 6 10.00 Fair CLR 66 37 34% 30.11 1019.6
03 09:53 NE 9 10.00 Fair CLR 63 42.1 63 54 47% 30.11 1019.5
03 08:53 NE 3 10.00 Fair CLR 57 45 64% 30.11 1019.4
03 07:53 Calm 10.00 Fair CLR 54 42.1 64% 30.09 1018.8
03 06:53 NE 5 10.00 A Few Clouds FEW075 57.9 39.9 51% 30.08 1018.4
03 05:53 NE 9 10.00 Mostly Cloudy BKN080 59 41 51% 30.05 1017.6
03 04:53 NE 14 10.00 Mostly Cloudy BKN080 60.1 41 50% 30.02 1016.6
03 03:53 N 14 G 23 10.00 Partly Cloudy SCT075 61 41 61 50 48% 29.99 1015.6
03 02:53 N 12 G 20 10.00 A Few Clouds FEW075 61 42.1 50% 29.97 1014.9
03 01:53 Vrbl 3 10.00 Fair CLR 57.9 45 62% 29.94 1013.9
03 00:53 Calm 10.00 Overcast BKN080 OVC100 52 48 86% 29.92 1013.1
02 23:53 NE 5 10.00 Overcast FEW080 OVC100 51.1 46.9 86% 29.89 1012.0
02 22:53 NE 3 10.00 A Few Clouds FEW095 51.1 46.9 86% 29.86 1011.1
02 21:53 Calm 10.00 Partly Cloudy SCT090 53.1 46.9 63 53.1 80% 29.82 1009.9
02 20:53 Calm 10.00 A Few Clouds FEW090 54 48.9 83% 29.8 1009.0
02 19:53 Calm 10.00 Fair CLR 55.9 48.9 77% 29.76 1007.9
02 17:53 Calm 10.00 Fair CLR 62.1 50 65% 29.71 1005.9
02 16:53 SW 3 10.00 Fair CLR 61 48.9 65% 29.69 1005.3
02 15:53 SW 6 10.00 Fair CLR 62.1 46.9 63 55 58% 29.67 1004.8
02 14:53 SW 6 10.00 Fair CLR 62.1 44.1 52% 29.66 1004.4
02 13:53 SW 5 10.00 Fair CLR 62.1 46.9 58% 29.66 1004.2
02 12:53 SW 5 10.00 Fair CLR 59 51.1 75% 29.66 1004.3
02 11:53 SW 3 10.00 Fair CLR 57 48.9 74% 29.65 1004.2
02 10:53 S 3 10.00 Fair CLR 55.9 48.9 77% 29.66 1004.4
02 09:53 Calm 10.00 Fair CLR 55.9 48 55.9 46 75% 29.67 1004.8
02 08:53 NE 5 10.00 Fair CLR 51.1 48 89% 29.68 1005.1
02 07:53 Vrbl 3 10.00 Fair CLR 46.9 45 93% 29.68 1005.0
02 06:53 Calm 10.00 Fair CLR 46 45 96% 29.68 1004.9
02 05:53 Calm 10.00 Fair CLR 46 45 96% 29.67 1004.8
02 04:53 NE 3 10.00 Fair CLR 48 46 93% 29.66 1004.5
02 03:53 NE 3 10.00 Fair CLR 46.9 46 52 46.9 97% 29.65 1004.1
02 02:53 NE 5 10.00 Mostly Cloudy BKN075 48 46.9 96% 47 29.65 1003.9
02 01:53 Calm 10.00 Fair CLR 48.9 46.9 93% 29.64 1003.5
02 00:53 Calm 10.00 A Few Clouds FEW080 48.9 46.9 93% 29.63 1003.3
01 23:53 Calm 10.00 Mostly Cloudy BKN080 50 48 93% 29.63 1003.2
01 22:53 Calm 10.00 Fair CLR 50 48 93% 29.62 1002.9
01 21:53 Calm 10.00 Fair CLR 51.1 48 70 51.1 89% 29.6 1002.3
Date Time (akdt) Wind (mph) Vis. (mi.) Weather Sky Cond. Air Dwpt Max. Min. Relative Humidity Wind Chill (°F) Heat Index (°F) altimeter (in) sea level (mb) 1 hr 3 hr 6 hr
6 hour
Temperature (ºF) Pressure Precipitation (in)